Saint Eustatius, St. Eustatius

8:17 AM AST on August 24, 2016 (GMT -0400)
IDUTCHCA4 | | Change Station

Elev 575 ft 17.48 °N, 62.97 °W | Updated 12 seconds ago

Light Rain Showers
Light Showers Rain
77.1 °F
Feels Like 78 °F
N
2.0
Wind Variable Wind from East

Today
High -- | Low -- °F
--% Chance of Precip.
Yesterday
High -- | Low -- °F
Precip. -- in
Pressure 29.89 in
Visibility 6.2 miles
Clouds Scattered Clouds 600 ft
Mostly Cloudy 1200 ft
Overcast 5000 ft
Heat Index 78 °F
Dew Point 75 °F
Humidity 94%
Rainfall 0.40 in
Snow Depth Not available.
5:56 AM 6:31 PM
Waning Gibbous, 57% visible
METAR TKPK 241200Z 15008KT 9999 -SHRA SCT006 BKN012 OVC050 25/25 Q1012
Pressure 29.89 in
Visibility 6.2 miles
Clouds Scattered Clouds 600 ft
Mostly Cloudy 1200 ft
Overcast 5000 ft
Heat Index 78 °F
Dew Point 75 °F
Humidity 94%
Rainfall 0.40 in
Snow Depth Not available.
5:56 AM 6:31 PM
Waning Gibbous, 57% visible
METAR TKPK 241200Z 15008KT 9999 -SHRA SCT006 BKN012 OVC050 25/25 Q1012

10-Day Weather Forecast

No radar image for this location.
×

Almanac

Astronomy

Aug. 24, 2016 Rise Set
Actual Time
Civil Twilight
Nautical Twilight
Astronomical Twilight
Moon
Length of Visible Light
Length of Day
Tomorrow will be .
, % of the Moon is Illuminated

Today's Extremes

Country Highs Country Lows

Community

WunderPhotos

Upload Photos

1,934,578 photos uploaded!

WunderBlog® & News

Nearby

Air Quality

  Air Quality AQ Index Pollutant
Not available.

Snow Depth

Station Depth Elevation

Earthquake Activity

City Distance Mag. Time & Date
Minimum magnitude displayed is 2.5.

Coastal Water Temperatures

Place Temperature

Stations

Nearby Weather Stations

Station Location Temp. Windchill Dew Point Humidity Wind Precip. Elev Updated Type